Time;durP1;ratioP1;P1;durP2;ratioP2;P2;SDS_P1;SDS_P2;PMS_P1;PMS_P2;Temp;Humidity;BMP_temperature;BMP_pressure;BME280_temperature;BME280_humidity;BME280_pressure;Samples;Min_cycle;Max_cycle;Signal;HPM_P1;HPM_P2
2023/09/19 00:01:44;;;;;;;1.88;1.20;;;;;;;18.23;100.00;96515.34;5115983;28;20280;-57
2023/09/19 00:04:14;;;;;;;1.35;1.20;;;;;;;18.13;100.00;96510.34;5097621;28;20204;-57
2023/09/19 00:06:42;;;;;;;2.55;1.50;;;;;;;18.08;100.00;96520.78;5115528;28;20629;-57
2023/09/19 00:09:10;;;;;;;1.88;1.40;;;;;;;18.05;100.00;96520.34;5131980;28;20217;-56
2023/09/19 00:11:37;;;;;;;2.13;1.40;;;;;;;17.98;100.00;96527.47;5134611;28;20190;-56
2023/09/19 00:14:08;;;;;;;1.35;1.25;;;;;;;17.91;100.00;96519.41;5128720;28;20208;-56
2023/09/19 00:16:35;;;;;;;1.63;1.25;;;;;;;17.83;100.00;96528.38;5099126;28;20204;-57
2023/09/19 00:19:08;;;;;;;1.58;1.48;;;;;;;17.86;100.00;96536.00;5111510;28;20282;-58
2023/09/19 00:21:37;;;;;;;1.55;1.40;;;;;;;17.83;100.00;96535.56;5111575;28;20653;-57
2023/09/19 00:24:04;;;;;;;1.38;1.27;;;;;;;17.75;100.00;96538.34;5111543;28;20208;-56
2023/09/19 00:26:34;;;;;;;1.83;1.60;;;;;;;17.70;100.00;96536.28;5112500;28;20209;-56
2023/09/19 00:29:04;;;;;;;2.05;1.45;;;;;;;17.63;100.00;96534.53;5112658;28;20229;-58
2023/09/19 00:31:31;;;;;;;2.13;1.48;;;;;;;17.56;100.00;96533.59;5111962;28;20212;-58
2023/09/19 00:33:59;;;;;;;0.98;0.98;;;;;;;17.54;100.00;96531.09;5112033;28;20644;-57
2023/09/19 00:36:26;;;;;;;2.28;1.45;;;;;;;17.48;100.00;96531.88;5112612;28;20227;-58
2023/09/19 00:38:54;;;;;;;1.60;1.50;;;;;;;17.43;100.00;96527.06;5111833;28;20216;-58
2023/09/19 00:41:21;;;;;;;1.63;1.52;;;;;;;17.42;100.00;96527.28;5112708;28;20491;-58
2023/09/19 00:43:50;;;;;;;1.63;1.38;;;;;;;17.37;100.00;96527.00;5112760;28;20621;-57
2023/09/19 00:46:17;;;;;;;2.40;1.60;;;;;;;17.39;100.00;96527.66;5113040;28;20213;-60
2023/09/19 00:48:44;;;;;;;1.95;1.40;;;;;;;17.30;100.00;96532.28;5111652;28;20978;-56
2023/09/19 00:51:11;;;;;;;1.58;1.30;;;;;;;17.31;100.00;96533.13;5111504;28;20212;-56
2023/09/19 00:53:39;;;;;;;1.52;1.30;;;;;;;17.30;100.00;96544.81;5111630;28;20208;-57
2023/09/19 00:56:07;;;;;;;1.65;1.55;;;;;;;17.28;100.00;96542.34;5110884;28;20641;-57
2023/09/19 00:58:35;;;;;;;1.85;1.23;;;;;;;17.27;100.00;96545.19;5111651;28;20225;-57
2023/09/19 01:01:02;;;;;;;1.65;1.55;;;;;;;17.24;100.00;96541.06;5111661;28;20200;-57
2023/09/19 01:03:29;;;;;;;1.50;1.40;;;;;;;17.27;100.00;96539.84;5110533;28;20197;-57
2023/09/19 01:05:56;;;;;;;2.03;1.60;;;;;;;17.25;100.00;96534.66;5110248;28;20548;-57
2023/09/19 01:08:22;;;;;;;1.92;1.65;;;;;;;17.24;100.00;96540.22;5111547;28;20537;-57
2023/09/19 01:10:53;;;;;;;2.10;1.52;;;;;;;17.25;100.00;96544.56;5110451;28;20552;-57
2023/09/19 01:13:27;;;;;;;3.08;1.42;;;;;;;17.27;100.00;96555.88;5111054;28;20193;-57
2023/09/19 01:16:00;;;;;;;1.52;1.42;;;;;;;17.25;100.00;96548.03;5111419;28;20211;-57
2023/09/19 01:18:33;;;;;;;1.50;1.40;;;;;;;17.26;100.00;96559.56;5110944;28;20655;-56
2023/09/19 01:21:06;;;;;;;1.77;1.50;;;;;;;17.27;100.00;96563.91;5110937;28;20189;-57
2023/09/19 01:23:43;;;;;;;2.15;1.33;;;;;;;17.30;100.00;96560.84;5110407;28;20419;-57
2023/09/19 01:26:20;;;;;;;3.70;1.50;;;;;;;17.29;100.00;96556.50;5110808;28;20215;-57
2023/09/19 01:29:07;;;;;;;2.55;1.25;;;;;;;17.28;100.00;96562.88;5110687;28;20228;-56
2023/09/19 01:31:38;;;;;;;1.30;1.20;;;;;;;17.28;100.00;96563.72;5112400;28;20204;-56
2023/09/19 01:34:04;;;;;;;1.48;1.40;;;;;;;17.27;100.00;96555.88;5115100;28;20216;-57
2023/09/19 01:36:35;;;;;;;1.67;1.58;;;;;;;17.25;100.00;96552.56;5114994;28;20201;-58
2023/09/19 01:39:06;;;;;;;2.85;1.55;;;;;;;17.24;100.00;96550.91;5114834;28;20221;-57
2023/09/19 01:41:55;;;;;;;2.63;1.67;;;;;;;17.24;100.00;96550.91;5115053;28;21375;-57
2023/09/19 01:44:26;;;;;;;1.70;1.40;;;;;;;17.25;100.00;96552.56;5101310;28;20223;-56
2023/09/19 01:46:56;;;;;;;1.20;1.10;;;;;;;17.25;100.00;96557.94;5115361;28;20512;-57
2023/09/19 01:49:28;;;;;;;1.58;1.48;;;;;;;17.24;100.00;96553.59;5114280;28;20254;-57
2023/09/19 01:52:04;;;;;;;1.65;1.55;;;;;;;17.22;100.00;96558.28;5114235;28;20629;-56
2023/09/19 01:54:33;;;;;;;2.10;1.40;;;;;;;17.18;100.00;96557.00;5114421;28;20540;-56
2023/09/19 01:57:05;;;;;;;1.65;1.40;;;;;;;17.15;100.00;96558.19;5114607;28;20216;-56
2023/09/19 01:59:36;;;;;;;1.90;1.50;;;;;;;17.15;100.00;96557.34;5113912;28;20212;-57
2023/09/19 02:02:05;;;;;;;1.20;1.10;;;;;;;17.16;100.00;96556.34;5114680;28;20283;-57
2023/09/19 02:04:33;;;;;;;2.45;1.60;;;;;;;17.16;100.00;96554.50;5113874;28;20209;-56
2023/09/19 02:07:01;;;;;;;1.85;1.70;;;;;;;17.17;100.00;96552.66;5113611;28;20205;-57
2023/09/19 02:09:27;;;;;;;2.15;1.20;;;;;;;17.18;100.00;96551.66;5114157;28;20280;-56
2023/09/19 02:11:55;;;;;;;1.30;1.20;;;;;;;17.19;100.00;96561.31;5114431;28;20197;-56
2023/09/19 02:14:22;;;;;;;1.70;1.60;;;;;;;17.20;100.00;96560.31;5114524;28;20414;-57
2023/09/19 02:16:50;;;;;;;1.48;1.33;;;;;;;17.20;100.00;96560.31;5114831;28;20237;-56
2023/09/19 02:19:18;;;;;;;1.58;1.20;;;;;;;17.21;100.00;96561.97;5114434;28;20225;-56
2023/09/19 02:21:44;;;;;;;2.60;1.67;;;;;;;17.22;100.00;96567.13;5113784;28;20197;-57
2023/09/19 02:24:12;;;;;;;1.63;1.30;;;;;;;17.25;100.00;96568.63;5114083;28;20209;-57
2023/09/19 02:26:38;;;;;;;2.25;1.48;;;;;;;17.26;100.00;96571.09;5114323;28;20193;-57
2023/09/19 02:29:05;;;;;;;2.75;1.23;;;;;;;17.23;100.00;96566.13;5111291;28;20232;-57
2023/09/19 02:31:31;;;;;;;2.03;1.48;;;;;;;17.25;100.00;96569.41;5113867;28;20649;-57
2023/09/19 02:33:59;;;;;;;1.67;1.00;;;;;;;17.23;100.00;96570.63;5114043;28;20205;-56
2023/09/19 02:36:27;;;;;;;4.05;1.30;;;;;;;17.22;100.00;96576.97;5112987;28;20201;-57
2023/09/19 02:38:54;;;;;;;1.52;1.40;;;;;;;17.14;100.00;96572.59;5112835;28;20748;-57
2023/09/19 02:41:20;;;;;;;3.40;1.30;;;;;;;17.15;100.00;96584.06;5113845;28;20507;-57
2023/09/19 02:43:47;;;;;;;2.80;1.40;;;;;;;17.13;100.00;96580.78;5113635;28;20277;-56
2023/09/19 02:46:14;;;;;;;3.15;1.40;;;;;;;17.11;100.00;96578.28;5113546;28;20205;-57
2023/09/19 02:48:41;;;;;;;1.95;1.35;;;;;;;17.13;100.00;96576.25;5114525;28;20299;-57
2023/09/19 02:51:08;;;;;;;2.60;1.30;;;;;;;17.12;100.00;96566.59;5096090;28;20266;-56
2023/09/19 02:53:36;;;;;;;1.75;1.38;;;;;;;17.12;100.00;96569.25;5113599;28;20200;-56
2023/09/19 02:56:04;;;;;;;1.92;1.20;;;;;;;17.12;100.00;96565.75;5114262;28;20713;-57
2023/09/19 02:58:35;;;;;;;1.73;1.33;;;;;;;17.13;100.00;96564.75;5113304;28;20299;-56
2023/09/19 03:01:09;;;;;;;1.65;1.48;;;;;;;17.15;100.00;96565.38;5097145;28;20289;-58
2023/09/19 03:03:37;;;;;;;2.30;1.13;;;;;;;17.16;100.00;96553.69;5113888;28;20199;-56
2023/09/19 03:06:04;;;;;;;1.63;1.20;;;;;;;17.16;100.00;96561.69;5113314;28;20197;-57
2023/09/19 03:08:30;;;;;;;1.85;1.13;;;;;;;17.18;100.00;96555.13;5113508;28;20515;-57
2023/09/19 03:11:00;;;;;;;1.23;1.17;;;;;;;17.23;100.00;96559.94;5112857;28;20311;-56
2023/09/19 03:13:27;;;;;;;1.27;1.27;;;;;;;17.27;100.00;96558.56;5113737;28;20263;-57
2023/09/19 03:15:56;;;;;;;1.17;1.08;;;;;;;17.27;100.00;96570.06;5112932;28;20308;-57
2023/09/19 03:18:23;;;;;;;1.30;1.20;;;;;;;17.30;100.00;96566.19;5113258;28;20197;-56
2023/09/19 03:20:54;;;;;;;0.98;0.80;;;;;;;17.33;100.00;96576.50;5112676;28;20223;-57
2023/09/19 03:23:21;;;;;;;2.10;1.05;;;;;;;17.35;100.00;96580.69;5113110;28;20208;-57
2023/09/19 03:25:48;;;;;;;2.17;0.90;;;;;;;17.36;100.00;96568.13;5112331;28;20194;-57
2023/09/19 03:28:16;;;;;;;1.77;0.82;;;;;;;17.36;100.00;96570.78;5113686;28;20308;-56
2023/09/19 03:30:43;;;;;;;1.30;1.20;;;;;;;17.37;100.00;96577.78;5112678;28;20239;-57
2023/09/19 03:33:11;;;;;;;1.30;1.30;;;;;;;17.36;100.00;96581.47;5113457;28;20589;-56
2023/09/19 03:35:38;;;;;;;0.90;0.90;;;;;;;17.36;100.00;96576.97;5112395;28;20221;-56
2023/09/19 03:38:05;;;;;;;1.23;1.13;;;;;;;17.37;100.00;96577.78;5113129;28;20197;-56
2023/09/19 03:40:32;;;;;;;1.35;1.00;;;;;;;17.31;100.00;96571.38;5113120;28;20285;-57
2023/09/19 03:43:01;;;;;;;2.53;1.27;;;;;;;17.31;100.00;96575.88;5113992;28;20197;-56
2023/09/19 03:45:30;;;;;;;2.60;1.08;;;;;;;17.31;100.00;96573.22;5112504;28;20639;-57
2023/09/19 03:47:57;;;;;;;1.17;1.13;;;;;;;17.28;100.00;96565.56;5113137;28;20209;-56
2023/09/19 03:50:23;;;;;;;1.77;1.02;;;;;;;17.29;100.00;96575.22;5113586;28;20293;-57
2023/09/19 03:52:50;;;;;;;1.48;1.00;;;;;;;17.25;100.00;96574.75;5113940;28;20201;-56
2023/09/19 03:55:16;;;;;;;0.95;0.90;;;;;;;17.31;100.00;96566.03;5113405;28;20315;-58
2023/09/19 03:57:43;;;;;;;1.00;0.93;;;;;;;17.29;100.00;96564.53;5114591;28;21375;-58
2023/09/19 04:00:12;;;;;;;0.77;0.77;;;;;;;17.31;100.00;96567.88;5113847;28;20684;-57
2023/09/19 04:02:40;;;;;;;0.80;0.75;;;;;;;17.31;100.00;96563.34;5114543;28;20201;-56
2023/09/19 04:05:08;;;;;;;1.60;0.98;;;;;;;17.33;100.00;96558.63;5114926;28;20544;-57
2023/09/19 04:07:34;;;;;;;1.35;1.00;;;;;;;17.39;100.00;96570.44;5115356;28;20209;-57
2023/09/19 04:10:01;;;;;;;1.63;1.00;;;;;;;17.38;100.00;96558.91;5114866;28;20211;-57
2023/09/19 04:12:27;;;;;;;2.20;0.50;;;;;;;17.40;100.00;96566.72;5114762;28;20629;-57
2023/09/19 04:14:54;;;;;;;1.85;0.90;;;;;;;17.36;100.00;96574.28;5115977;28;20540;-58
2023/09/19 04:17:20;;;;;;;1.42;1.00;;;;;;;17.35;100.00;96569.16;5114019;28;20215;-57
2023/09/19 04:19:48;;;;;;;1.20;1.02;;;;;;;17.33;100.00;96571.16;5113878;28;20252;-58
2023/09/19 04:22:15;;;;;;;1.52;0.90;;;;;;;17.30;100.00;96575.03;5114312;28;20205;-57
2023/09/19 04:24:44;;;;;;;0.90;0.85;;;;;;;17.27;100.00;96574.59;5114523;28;20249;-57
2023/09/19 04:27:12;;;;;;;0.85;0.85;;;;;;;17.24;100.00;96582.97;5112967;28;20201;-58
2023/09/19 04:29:39;;;;;;;2.55;1.80;;;;;;;17.20;100.00;96576.34;5111599;28;20228;-55
2023/09/19 04:32:07;;;;;;;3.00;2.70;;;;;;;17.19;100.00;96583.53;5111113;28;21404;-57
2023/09/19 04:34:34;;;;;;;2.13;1.83;;;;;;;17.19;100.00;96582.69;5111606;28;20205;-57
2023/09/19 04:37:03;;;;;;;2.05;1.23;;;;;;;17.17;100.00;96584.75;5111783;28;20208;-56
2023/09/19 04:39:30;;;;;;;2.63;1.00;;;;;;;17.19;100.00;96574.69;5111065;28;20236;-57
2023/09/19 04:41:56;;;;;;;1.23;1.05;;;;;;;17.21;100.00;96583.34;5111901;28;20203;-58
2023/09/19 04:44:23;;;;;;;1.10;1.00;;;;;;;17.25;100.00;96587.31;5111430;28;20695;-57
2023/09/19 04:46:50;;;;;;;1.48;0.98;;;;;;;17.25;100.00;96592.66;5111008;28;20201;-57
2023/09/19 04:49:18;;;;;;;3.03;1.20;;;;;;;17.27;100.00;96590.63;5112066;28;20280;-57
2023/09/19 04:51:46;;;;;;;1.45;0.90;;;;;;;17.27;100.00;96598.66;5113202;28;20197;-57
2023/09/19 04:54:15;;;;;;;1.38;1.02;;;;;;;17.29;100.00;96612.63;5111356;28;20705;-56
2023/09/19 04:56:42;;;;;;;1.15;0.80;;;;;;;17.29;100.00;96609.97;5111962;28;20213;-56
2023/09/19 04:59:10;;;;;;;1.00;0.90;;;;;;;17.30;100.00;96616.97;5112356;28;20212;-56
2023/09/19 05:01:36;;;;;;;0.70;0.70;;;;;;;17.26;100.00;96624.53;5112145;28;20747;-58
2023/09/19 05:04:04;;;;;;;0.88;0.85;;;;;;;17.28;100.00;96629.72;5111847;28;20266;-57
2023/09/19 05:06:31;;;;;;;0.80;0.80;;;;;;;17.29;100.00;96629.50;5111191;28;20235;-58
2023/09/19 05:08:57;;;;;;;2.85;1.13;;;;;;;17.30;100.00;96635.69;5114466;28;20212;-56
2023/09/19 05:11:26;;;;;;;2.20;1.13;;;;;;;17.27;100.00;96628.88;5110958;28;20197;-56
2023/09/19 05:13:52;;;;;;;0.80;0.75;;;;;;;17.28;100.00;96635.06;5110749;28;20220;-57
2023/09/19 05:16:19;;;;;;;1.15;1.10;;;;;;;17.26;100.00;96631.72;5111220;28;20197;-57
2023/09/19 05:18:45;;;;;;;0.88;0.88;;;;;;;17.26;100.00;96637.06;5111181;28;20201;-56
2023/09/19 05:21:12;;;;;;;0.77;0.77;;;;;;;17.25;100.00;96651.47;5110557;28;20687;-58
2023/09/19 05:23:39;;;;;;;1.52;0.60;;;;;;;17.25;100.00;96651.47;5110678;28;20223;-58
2023/09/19 05:26:05;;;;;;;2.45;1.00;;;;;;;17.24;100.00;96652.47;5110398;28;20661;-57
2023/09/19 05:28:34;;;;;;;1.67;0.80;;;;;;;17.22;100.00;96641.94;5110929;28;20240;-57
2023/09/19 05:31:02;;;;;;;1.00;0.90;;;;;;;17.21;100.00;96653.69;5111079;28;20300;-57
2023/09/19 05:33:30;;;;;;;0.90;0.90;;;;;;;17.22;100.00;96654.47;5111121;28;20197;-58
2023/09/19 05:35:57;;;;;;;1.40;1.00;;;;;;;17.23;100.00;96659.66;5110637;28;20333;-58
2023/09/19 05:38:24;;;;;;;1.30;1.20;;;;;;;17.24;100.00;96644.47;5110673;28;20260;-57
2023/09/19 05:40:50;;;;;;;1.27;0.82;;;;;;;17.24;100.00;96655.16;5110776;28;20224;-57
2023/09/19 05:43:18;;;;;;;0.50;0.50;;;;;;;17.29;100.00;96658.06;5110982;28;20208;-55
2023/09/19 05:45:46;;;;;;;0.60;0.60;;;;;;;17.28;100.00;96653.78;5110292;28;20236;-58
2023/09/19 05:48:15;;;;;;;0.77;0.77;;;;;;;17.29;100.00;96661.59;5110473;28;20197;-57
2023/09/19 05:50:42;;;;;;;1.48;1.15;;;;;;;17.31;100.00;96669.44;5110446;28;20198;-59
2023/09/19 05:53:14;;;;;;;1.08;0.80;;;;;;;17.33;100.00;96672.75;5110589;28;20287;-57
2023/09/19 05:55:40;;;;;;;0.75;0.70;;;;;;;17.37;100.00;96676.72;5110318;28;20296;-58
2023/09/19 05:58:08;;;;;;;0.68;0.68;;;;;;;17.34;100.00;96675.25;5110370;28;20206;-56
2023/09/19 06:00:35;;;;;;;0.70;0.70;;;;;;;17.39;100.00;96678.16;5110798;28;20221;-57
2023/09/19 06:03:03;;;;;;;1.75;0.90;;;;;;;17.41;100.00;96692.19;5110215;28;20212;-57
2023/09/19 06:05:31;;;;;;;1.05;0.73;;;;;;;17.38;100.00;96686.41;5110355;28;20197;-57
2023/09/19 06:08:00;;;;;;;1.65;0.70;;;;;;;17.45;100.00;96676.63;5110706;28;20201;-58
2023/09/19 06:10:27;;;;;;;1.38;1.00;;;;;;;17.55;100.00;96671.81;5110132;28;20205;-57
2023/09/19 06:12:55;;;;;;;2.15;0.73;;;;;;;17.59;100.00;96673.16;5110440;28;20213;-58
2023/09/19 06:15:23;;;;;;;1.58;0.80;;;;;;;17.66;100.00;96674.06;5109801;28;20219;-57
2023/09/19 06:17:50;;;;;;;7.53;1.02;;;;;;;17.67;100.00;96675.72;5111427;28;20205;-58
2023/09/19 06:20:19;;;;;;;4.13;1.15;;;;;;;17.78;100.00;96680.56;5114935;28;20540;-56
2023/09/19 06:22:46;;;;;;;1.10;0.88;;;;;;;17.84;100.00;96689.72;5117702;28;20272;-61
2023/09/19 06:25:16;;;;;;;2.10;1.05;;;;;;;17.90;100.00;96692.47;5115264;28;20205;-58
2023/09/19 06:27:44;;;;;;;0.77;0.77;;;;;;;18.05;100.00;96683.56;5113691;28;21401;-57
2023/09/19 06:30:12;;;;;;;1.27;0.60;;;;;;;18.26;100.00;96683.59;5114040;28;20221;-57
2023/09/19 06:32:38;;;;;;;0.93;0.80;;;;;;;18.34;100.00;96692.38;5114809;28;20208;-58
2023/09/19 06:35:07;;;;;;;1.48;0.85;;;;;;;18.32;100.00;96685.53;5113347;28;20659;-57
2023/09/19 06:37:35;;;;;;;0.60;0.60;;;;;;;18.30;100.00;96693.75;5113192;28;20274;-56
2023/09/19 06:40:02;;;;;;;2.85;0.82;;;;;;;18.30;100.00;96690.25;5113358;28;20575;-56
2023/09/19 06:42:31;;;;;;;0.93;0.73;;;;;;;18.25;100.00;96680.09;5113651;28;20209;-60
2023/09/19 06:44:57;;;;;;;3.30;1.58;;;;;;;18.18;100.00;96689.06;5113280;28;20200;-57
2023/09/19 06:47:25;;;;;;;1.10;1.10;;;;;;;18.17;100.00;96698.16;5112842;28;20537;-57
2023/09/19 06:49:52;;;;;;;0.88;0.88;;;;;;;18.11;100.00;96702.38;5112419;28;20570;-57
2023/09/19 06:52:21;;;;;;;2.65;0.80;;;;;;;18.03;100.00;96699.00;5112906;28;20212;-57
2023/09/19 06:54:50;;;;;;;1.70;0.80;;;;;;;17.97;100.00;96703.25;5112280;28;20204;-56
2023/09/19 06:57:16;;;;;;;0.70;0.70;;;;;;;17.97;100.00;96705.09;5114072;28;20202;-57
2023/09/19 06:59:44;;;;;;;1.85;1.10;;;;;;;17.95;100.00;96710.66;5113766;28;20208;-57
2023/09/19 07:02:11;;;;;;;0.70;0.70;;;;;;;18.00;100.00;96718.91;5113535;28;20297;-56
2023/09/19 07:04:37;;;;;;;2.58;0.70;;;;;;;17.96;100.00;96722.19;5113697;28;20220;-56
2023/09/19 07:07:04;;;;;;;1.20;0.70;;;;;;;17.92;100.00;96718.22;5113663;28;20201;-57
2023/09/19 07:09:31;;;;;;;1.85;0.80;;;;;;;17.90;100.00;96719.22;5113087;28;20744;-56
2023/09/19 07:11:59;;;;;;;0.52;0.52;;;;;;;17.89;100.00;96708.69;5113307;28;20382;-56
2023/09/19 07:14:25;;;;;;;1.95;0.90;;;;;;;17.92;100.00;96708.34;5113482;28;20209;-56
2023/09/19 07:16:52;;;;;;;1.08;0.70;;;;;;;17.97;100.00;96718.47;5113056;28;20543;-56
2023/09/19 07:19:19;;;;;;;0.57;0.57;;;;;;;18.12;100.00;96722.78;5112577;28;20205;-56
2023/09/19 07:21:47;;;;;;;3.75;1.38;;;;;;;18.13;100.00;96718.28;5113311;28;20228;-56
2023/09/19 07:24:14;;;;;;;1.77;0.90;;;;;;;18.11;100.00;96714.94;5112079;28;20212;-58
2023/09/19 07:26:41;;;;;;;3.50;1.83;;;;;;;18.15;100.00;96717.06;5111826;28;20629;-56
2023/09/19 07:29:09;;;;;;;1.80;1.35;;;;;;;18.22;100.00;96717.13;5111038;28;20248;-56
2023/09/19 07:31:36;;;;;;;0.80;0.80;;;;;;;18.23;100.00;96711.59;5112576;28;20642;-56
2023/09/19 07:34:03;;;;;;;1.25;1.10;;;;;;;18.29;100.00;96720.69;5111862;28;20620;-56
2023/09/19 07:36:30;;;;;;;1.00;0.80;;;;;;;18.39;100.00;96723.91;5112561;28;20205;-57
2023/09/19 07:38:57;;;;;;;0.88;0.88;;;;;;;18.37;100.00;96725.94;5112377;28;20583;-57
2023/09/19 07:41:25;;;;;;;1.15;0.90;;;;;;;18.36;100.00;96735.84;5112367;28;20231;-56
2023/09/19 07:43:52;;;;;;;1.02;0.65;;;;;;;18.39;100.00;96737.28;5112708;28;20194;-56
2023/09/19 07:46:20;;;;;;;0.95;0.77;;;;;;;18.41;100.00;96748.66;5112890;28;20296;-56
2023/09/19 07:48:48;;;;;;;0.98;0.90;;;;;;;18.49;100.00;96745.03;5122872;28;20284;-57
2023/09/19 07:51:15;;;;;;;5.82;1.23;;;;;;;18.50;100.00;96747.50;5126145;28;20308;-56
2023/09/19 07:53:42;;;;;;;3.00;1.08;;;;;;;18.61;100.00;96748.88;5119687;28;20201;-57
2023/09/19 07:56:10;;;;;;;0.75;0.75;;;;;;;18.53;100.00;96746.34;5113466;28;20594;-56
2023/09/19 07:58:40;;;;;;;1.17;1.08;;;;;;;18.57;100.00;96753.81;5113587;28;20311;-56
2023/09/19 08:01:10;;;;;;;1.27;0.88;;;;;;;18.52;100.00;96758.09;5113418;28;20221;-56
2023/09/19 08:03:40;;;;;;;2.22;0.93;;;;;;;18.52;100.00;96761.59;5113374;28;20209;-58
2023/09/19 08:06:07;;;;;;;1.00;1.00;;;;;;;18.45;100.00;96766.00;5111486;28;20193;-56
2023/09/19 08:08:36;;;;;;;2.38;1.00;;;;;;;18.46;100.00;96761.50;5112761;28;20519;-58
2023/09/19 08:11:10;;;;;;;0.80;0.77;;;;;;;18.50;100.00;96760.91;5111454;28;20227;-57
2023/09/19 08:13:37;;;;;;;1.35;0.95;;;;;;;18.42;100.00;96777.09;5113317;28;20216;-57
2023/09/19 08:16:04;;;;;;;2.28;0.85;;;;;;;18.41;100.00;96772.75;5122255;28;20212;-56
2023/09/19 08:18:30;;;;;;;0.85;0.85;;;;;;;18.39;100.00;96777.47;5124582;28;20294;-57
2023/09/19 08:21:00;;;;;;;1.20;0.73;;;;;;;18.36;100.00;96773.31;5125186;28;20220;-57
2023/09/19 08:23:26;;;;;;;1.40;0.90;;;;;;;18.40;100.00;96773.78;5125075;28;20196;-56
2023/09/19 08:25:57;;;;;;;0.90;0.90;;;;;;;18.49;100.00;96778.00;5125954;28;20205;-56
2023/09/19 08:28:24;;;;;;;0.98;0.95;;;;;;;18.62;100.00;96778.19;5128703;28;20233;-57
2023/09/19 08:30:50;;;;;;;1.15;0.98;;;;;;;18.60;100.00;96780.19;5129496;28;20212;-57
2023/09/19 08:33:17;;;;;;;1.77;1.10;;;;;;;18.70;100.00;96766.53;5129224;28;20233;-58
2023/09/19 08:35:45;;;;;;;1.95;1.10;;;;;;;18.80;100.00;96783.94;5128962;28;20231;-58
2023/09/19 08:38:14;;;;;;;2.42;1.20;;;;;;;19.04;100.00;96779.19;5128967;28;20221;-56
2023/09/19 08:40:42;;;;;;;1.90;1.20;;;;;;;19.26;100.00;96776.31;5116913;28;20231;-56
2023/09/19 08:43:08;;;;;;;1.85;1.15;;;;;;;19.27;100.00;96777.16;5112334;28;20197;-56
2023/09/19 08:45:36;;;;;;;1.13;1.02;;;;;;;19.35;100.00;96779.69;5110991;28;20310;-58
2023/09/19 08:48:16;;;;;;;1.90;1.00;;;;;;;19.37;100.00;96780.31;5111787;28;20216;-58
2023/09/19 08:50:44;;;;;;;2.22;1.35;;;;;;;19.27;100.00;96779.84;5111815;28;20304;-58
2023/09/19 08:53:31;;;;;;;1.30;1.00;;;;;;;19.33;100.00;96787.94;5111888;28;20213;-57
2023/09/19 08:56:01;;;;;;;1.67;1.38;;;;;;;19.37;100.00;96783.00;5111333;28;20283;-57
2023/09/19 08:58:33;;;;;;;1.48;1.23;;;;;;;19.32;100.00;96791.63;5111450;28;20201;-57
2023/09/19 09:01:01;;;;;;;1.20;1.08;;;;;;;19.27;100.00;96793.25;5111511;28;20201;-57
2023/09/19 09:03:32;;;;;;;2.03;1.30;;;;;;;19.25;100.00;96795.28;5111834;28;20205;-56
2023/09/19 09:05:59;;;;;;;1.70;1.08;;;;;;;19.24;100.00;96796.28;5111463;28;20209;-57
2023/09/19 09:08:27;;;;;;;2.85;0.90;;;;;;;19.10;100.00;96794.50;5111450;28;20232;-56
2023/09/19 09:10:54;;;;;;;1.42;1.30;;;;;;;19.05;100.00;96794.28;5110693;28;20202;-57
2023/09/19 09:13:21;;;;;;;1.30;1.20;;;;;;;19.03;100.00;96796.28;5111223;28;20426;-57
2023/09/19 09:15:49;;;;;;;1.73;1.33;;;;;;;19.05;100.00;96800.47;5111260;28;20221;-56
2023/09/19 09:18:15;;;;;;;1.27;1.08;;;;;;;19.04;100.00;96792.59;5111738;28;20270;-57
2023/09/19 09:20:44;;;;;;;1.73;1.15;;;;;;;18.98;100.00;96804.09;5112520;28;20244;-56
2023/09/19 09:23:11;;;;;;;0.90;0.90;;;;;;;19.02;100.00;96808.06;5112995;28;20205;-57
2023/09/19 09:25:56;;;;;;;2.45;1.27;;;;;;;18.99;100.00;96816.50;5111963;28;20314;-57
2023/09/19 09:28:25;;;;;;;2.25;1.25;;;;;;;19.04;100.00;96804.16;5112099;28;20220;-57
2023/09/19 09:30:52;;;;;;;1.45;1.05;;;;;;;19.11;100.00;96805.06;5111911;28;20200;-56
2023/09/19 09:33:18;;;;;;;1.40;1.10;;;;;;;19.17;100.00;96803.44;5111969;28;20189;-56
2023/09/19 09:35:52;;;;;;;1.02;0.95;;;;;;;19.17;100.00;96804.28;5111937;28;20227;-58
2023/09/19 09:38:19;;;;;;;1.52;1.08;;;;;;;19.26;100.00;96802.31;5111185;28;20197;-57
2023/09/19 09:40:54;;;;;;;1.02;0.93;;;;;;;19.49;100.00;96796.72;5110695;28;20217;-58
2023/09/19 09:43:30;;;;;;;0.98;0.90;;;;;;;19.80;100.00;96799.88;5111063;28;20593;-57
2023/09/19 09:49:24;;;;;;;0.80;0.80;;;;;;;20.28;100.00;96798.91;5111089;28;20216;-57
2023/09/19 09:52:00;;;;;;;2.33;0.98;;;;;;;20.44;100.00;96796.94;5113745;28;20207;-57
2023/09/19 09:54:34;;;;;;;1.08;0.80;;;;;;;20.46;100.00;96789.47;5118085;28;20223;-56
2023/09/19 09:57:05;;;;;;;1.08;0.98;;;;;;;20.96;100.00;96794.38;5114978;28;20217;-57
2023/09/19 09:59:53;;;;;;;2.13;0.88;;;;;;;21.29;98.44;96791.78;5114968;28;20239;-57
2023/09/19 10:02:28;;;;;;;1.00;0.80;;;;;;;21.42;98.87;96786.38;5114537;28;20714;-57
2023/09/19 10:05:08;;;;;;;1.00;0.80;;;;;;;21.37;95.62;96788.03;5114684;28;20193;-57
2023/09/19 10:07:38;;;;;;;0.65;0.65;;;;;;;21.31;95.11;96781.63;5113664;28;20208;-58
2023/09/19 10:10:15;;;;;;;1.05;0.95;;;;;;;21.37;96.57;96778.09;5114419;28;20205;-56
2023/09/19 10:12:49;;;;;;;1.15;0.85;;;;;;;21.36;96.67;96786.41;5115076;28;20200;-58
2023/09/19 10:15:20;;;;;;;0.80;0.80;;;;;;;21.36;96.38;96779.16;5097625;28;20258;-58
2023/09/19 10:17:47;;;;;;;0.90;0.90;;;;;;;21.56;93.22;96774.59;5096027;28;20204;-57
2023/09/19 10:20:32;;;;;;;0.70;0.70;;;;;;;21.62;94.45;96776.44;5114611;28;20204;-57
2023/09/19 10:23:00;;;;;;;1.92;1.15;;;;;;;21.67;92.74;96773.94;5113980;28;20882;-58
2023/09/19 10:25:30;;;;;;;0.82;0.80;;;;;;;21.82;93.70;96771.84;5114233;28;20205;-57
2023/09/19 10:27:58;;;;;;;2.00;0.95;;;;;;;21.80;94.19;96778.47;5114395;28;20205;-56
2023/09/19 10:30:28;;;;;;;1.27;0.80;;;;;;;21.76;93.91;96778.06;5113835;28;20266;-58
2023/09/19 10:32:59;;;;;;;1.08;0.90;;;;;;;22.18;94.98;96784.84;5114357;28;20205;-57
2023/09/19 10:35:26;;;;;;;2.08;0.98;;;;;;;;;;5113933;28;20715;-58
2023/09/19 10:37:55;;;;;;;1.08;0.90;;;;;;;22.50;87.75;96774.97;5114096;28;20500;-57
2023/09/19 10:40:26;;;;;;;0.93;0.93;;;;;;;22.45;89.06;96769.41;5113351;28;20209;-56
2023/09/19 10:42:53;;;;;;;0.80;0.80;;;;;;;22.26;90.62;96765.75;5114549;28;20579;-57
2023/09/19 10:45:22;;;;;;;1.70;1.15;;;;;;;21.94;96.18;96773.91;5113671;28;20529;-57
2023/09/19 10:47:52;;;;;;;1.50;1.20;;;;;;;22.22;94.97;96771.75;5114053;28;20573;-57
2023/09/19 10:50:21;;;;;;;1.30;1.08;;;;;;;22.25;96.00;96764.09;5113987;28;20208;-57
2023/09/19 10:52:50;;;;;;;1.60;1.30;;;;;;;22.29;89.96;96767.19;5114661;28;20201;-58
2023/09/19 10:55:18;;;;;;;1.25;1.15;;;;;;;22.50;88.96;96764.19;5114008;28;20220;-57
2023/09/19 10:57:46;;;;;;;1.08;1.00;;;;;;;22.74;90.20;96765.38;5114915;28;20503;-58
2023/09/19 11:00:23;;;;;;;0.95;0.93;;;;;;;22.84;89.48;96767.56;5113707;28;20212;-57
2023/09/19 11:03:21;;;;;;;0.93;0.93;;;;;;;22.59;84.90;96760.22;5114764;28;20205;-57
2023/09/19 11:06:13;;;;;;;1.80;1.10;;;;;;;22.14;87.91;96764.75;5095962;28;20267;-57
2023/09/19 11:09:16;;;;;;;1.10;1.10;;;;;;;22.02;93.70;96763.75;5114464;28;20296;-57
2023/09/19 11:11:50;;;;;;;1.10;1.02;;;;;;;22.11;93.15;96750.88;5114833;28;20197;-57
2023/09/19 11:14:54;;;;;;;1.38;1.27;;;;;;;21.76;89.35;96748.47;5114456;28;20200;-57
2023/09/19 11:17:41;;;;;;;1.50;0.75;;;;;;;21.83;91.82;96737.66;5111063;27;20287;-58
2023/09/19 11:23:26;;;;;;;1.02;0.90;;;;;;;22.65;97.05;96735.09;5117133;28;20321;-58
2023/09/19 11:25:56;;;;;;;1.13;0.90;;;;;;;22.87;92.66;96737.47;5099030;28;20224;-56
2023/09/19 11:28:32;;;;;;;1.15;1.15;;;;;;;22.83;95.47;96730.84;5116624;28;20233;-58
2023/09/19 11:31:00;;;;;;;0.90;0.90;;;;;;;22.81;90.88;96733.78;5117995;28;20197;-57
2023/09/19 11:33:31;;;;;;;2.10;0.90;;;;;;;23.28;90.61;96743.19;5118203;28;20536;-56
2023/09/19 11:36:03;;;;;;;1.88;1.08;;;;;;;23.53;85.86;96737.81;5121061;28;20193;-58
2023/09/19 11:39:01;;;;;;;1.02;1.02;;;;;;;24.01;86.19;96737.94;5119541;28;20193;-58
2023/09/19 11:41:40;;;;;;;1.10;0.93;;;;;;;24.47;85.56;96727.44;5120868;28;20223;-57
2023/09/19 11:44:37;;;;;;;2.17;1.48;;;;;;;24.62;82.34;96727.03;5123198;28;20239;-56